createdAt,value
2018-01-27T00:00:22.894Z,36.63
2018-01-27T00:02:49.072Z,31.73
2018-01-27T00:05:16.032Z,35.10
2018-01-27T00:07:42.308Z,34.40
2018-01-27T00:10:08.712Z,33.63
2018-01-27T00:12:34.864Z,37.60
2018-01-27T00:15:01.756Z,40.63
2018-01-27T00:17:27.907Z,38.90
2018-01-27T00:19:54.112Z,31.20
2018-01-27T00:22:20.288Z,38.47
2018-01-27T00:24:46.451Z,34.37
2018-01-27T00:27:13.348Z,36.97
2018-01-27T00:29:39.512Z,37.93
2018-01-27T00:32:06.436Z,34.50
2018-01-27T00:34:32.662Z,32.07
2018-01-27T00:36:58.840Z,39.67
2018-01-27T00:39:25.747Z,35.77
2018-01-27T00:41:51.899Z,36.17
2018-01-27T00:44:18.088Z,42.93
2018-01-27T00:46:44.293Z,36.53
2018-01-27T00:49:11.195Z,41.70
2018-01-27T00:51:37.368Z,43.10
2018-01-27T00:54:03.550Z,43.03
2018-01-27T00:56:29.731Z,48.60
2018-01-27T00:58:55.879Z,51.20
2018-01-27T01:01:22.031Z,44.97
2018-01-27T01:03:48.183Z,40.60
2018-01-27T01:06:14.334Z,42.03
2018-01-27T01:08:40.568Z,51.57
2018-01-27T01:11:08.225Z,39.83
2018-01-27T01:13:34.388Z,49.73
2018-01-27T01:16:00.579Z,47.93
2018-01-27T01:18:26.788Z,45.83
2018-01-27T01:20:52.935Z,44.37
2018-01-27T01:23:19.103Z,46.93
2018-01-27T01:25:45.260Z,52.40
2018-01-27T01:28:11.428Z,53.73
2018-01-27T01:30:37.611Z,50.43
2018-01-27T01:33:03.762Z,55.93
2018-01-27T01:35:29.912Z,49.80
2018-01-27T01:37:56.819Z,48.27
2018-01-27T01:40:22.997Z,45.07
2018-01-27T01:42:56.124Z,49.80
2018-01-27T01:45:22.300Z,43.80
2018-01-27T01:47:49.207Z,39.53
2018-01-27T01:50:15.351Z,44.00
2018-01-27T01:52:41.526Z,44.77
2018-01-27T01:55:08.456Z,50.83
2018-01-27T01:57:34.626Z,51.23
2018-01-27T02:00:01.542Z,49.27
2018-01-27T02:02:27.696Z,46.90
2018-01-27T02:04:54.587Z,49.03
2018-01-27T02:07:20.753Z,44.63
2018-01-27T02:09:47.005Z,49.23
2018-01-27T02:12:13.187Z,63.97
2018-01-27T02:14:39.370Z,49.47
2018-01-27T02:17:05.535Z,48.43
2018-01-27T02:19:31.708Z,50.70
2018-01-27T02:21:57.889Z,49.13
2018-01-27T02:24:24.787Z,56.47
2018-01-27T02:26:50.948Z,58.33
2018-01-27T02:29:17.153Z,65.23
2018-01-27T02:31:43.294Z,56.60
2018-01-27T02:34:09.447Z,63.30
2018-01-27T02:36:36.368Z,64.10
2018-01-27T02:39:02.525Z,67.87
2018-01-27T02:41:28.696Z,69.13
2018-01-27T02:43:54.869Z,61.07
2018-01-27T02:46:21.048Z,65.83
2018-01-27T02:48:48.007Z,64.13
2018-01-27T02:51:14.179Z,60.87
2018-01-27T02:53:40.345Z,60.20
2018-01-27T02:56:06.524Z,62.57
2018-01-27T02:58:32.748Z,58.10
2018-01-27T03:00:58.909Z,58.00
2018-01-27T03:03:25.063Z,69.20
2018-01-27T03:05:51.244Z,66.27
2018-01-27T03:08:18.153Z,59.63
2018-01-27T03:10:44.396Z,67.07
2018-01-27T03:13:10.833Z,57.67
2018-01-27T03:15:37.724Z,60.07
2018-01-27T03:18:03.890Z,61.83
2018-01-27T03:20:30.084Z,67.43
2018-01-27T03:22:56.962Z,66.00
2018-01-27T03:25:23.136Z,69.37
2018-01-27T03:27:49.320Z,69.23
2018-01-27T03:30:15.485Z,51.00
2018-01-27T03:32:42.483Z,56.70
2018-01-27T03:35:08.867Z,68.73
2018-01-27T03:37:35.155Z,65.30
2018-01-27T03:40:01.382Z,62.73
2018-01-27T03:42:28.293Z,56.67
2018-01-27T03:44:54.450Z,56.63
2018-01-27T03:47:22.097Z,62.40
2018-01-27T03:49:49.148Z,66.30
2018-01-27T03:52:15.324Z,53.00
2018-01-27T03:54:43.172Z,60.37
2018-01-27T03:57:10.183Z,72.00
2018-01-27T03:59:36.356Z,57.77
2018-01-27T04:02:03.288Z,66.40
2018-01-27T04:04:29.478Z,54.93
2018-01-27T04:06:55.659Z,63.10
2018-01-27T04:09:21.836Z,58.67
2018-01-27T04:11:50.536Z,57.77
2018-01-27T04:14:16.935Z,61.57
2018-01-27T04:16:43.844Z,62.93
2018-01-27T04:19:10.035Z,59.73
2018-01-27T04:21:36.980Z,55.20
2018-01-27T04:24:03.196Z,58.70
2018-01-27T04:26:29.371Z,55.17
2018-01-27T04:28:55.547Z,54.03
2018-01-27T04:31:21.724Z,52.73
2018-01-27T04:33:47.903Z,63.23
2018-01-27T04:36:14.066Z,59.53
2018-01-27T04:38:40.975Z,61.00
2018-01-27T04:41:07.208Z,69.43
2018-01-27T04:43:33.411Z,66.03
2018-01-27T04:45:59.599Z,55.50
2018-01-27T04:48:25.783Z,56.90
2018-01-27T04:50:51.958Z,66.70
2018-01-27T04:53:18.133Z,61.83
2018-01-27T04:55:45.051Z,57.20
2018-01-27T04:58:11.216Z,58.27
2018-01-27T05:00:38.143Z,57.20
2018-01-27T05:03:04.311Z,60.63
2018-01-27T05:05:30.510Z,63.23
2018-01-27T05:07:56.708Z,51.33
2018-01-27T05:10:22.902Z,54.03
2018-01-27T05:12:49.864Z,50.07
2018-01-27T05:15:17.955Z,55.33
2018-01-27T05:17:44.139Z,59.73
2018-01-27T05:20:10.328Z,46.37
2018-01-27T05:22:36.500Z,59.80
2018-01-27T05:25:02.664Z,56.27
2018-01-27T05:27:29.595Z,52.83
2018-01-27T05:29:55.759Z,57.50
2018-01-27T05:32:21.940Z,49.57
2018-01-27T05:34:48.111Z,54.27
2018-01-27T05:37:15.023Z,60.20
2018-01-27T05:39:41.235Z,61.33
2018-01-27T05:42:07.454Z,69.73
2018-01-27T05:44:33.725Z,47.23
2018-01-27T05:46:59.916Z,61.10
2018-01-27T05:49:26.100Z,61.60
2018-01-27T05:51:52.288Z,58.87
2018-01-27T05:54:18.487Z,66.87
2018-01-27T05:56:44.659Z,70.10
2018-01-27T05:59:10.839Z,65.67
2018-01-27T06:01:37.187Z,61.47
2018-01-27T06:04:03.397Z,72.77
2018-01-27T06:06:29.552Z,76.93
2018-01-27T06:08:55.747Z,78.33
2018-01-27T06:11:21.940Z,83.00
2018-01-27T06:13:48.209Z,80.13
2018-01-27T06:16:14.420Z,84.70
2018-01-27T06:18:40.612Z,75.50
2018-01-27T06:21:06.806Z,69.57
2018-01-27T06:23:32.999Z,73.00
2018-01-27T06:25:59.229Z,90.90
2018-01-27T06:28:26.159Z,89.47
2018-01-27T06:30:52.413Z,84.47
2018-01-27T06:33:18.607Z,81.47
2018-01-27T06:35:44.833Z,79.20
2018-01-27T06:38:11.017Z,89.53
2018-01-27T06:40:37.958Z,80.93
2018-01-27T06:43:04.143Z,85.67
2018-01-27T06:45:30.334Z,80.83
2018-01-27T06:47:57.258Z,78.53
2018-01-27T06:50:23.417Z,80.97
2018-01-27T06:52:50.388Z,81.37
2018-01-27T06:55:17.284Z,80.33
2018-01-27T06:57:43.453Z,79.27
2018-01-27T07:00:10.384Z,80.33
2018-01-27T07:02:36.564Z,76.47
2018-01-27T07:05:02.744Z,76.87
2018-01-27T07:07:28.951Z,67.83
2018-01-27T07:09:55.113Z,74.10
2018-01-27T07:12:21.288Z,85.53
2018-01-27T07:14:48.467Z,71.60
2018-01-27T07:17:14.868Z,68.93
2018-01-27T07:19:41.778Z,64.70
2018-01-27T07:22:07.947Z,80.47
2018-01-27T07:24:34.136Z,70.07
2018-01-27T07:27:00.314Z,65.03
2018-01-27T07:29:27.255Z,66.67
2018-01-27T07:31:53.411Z,70.27
2018-01-27T07:34:20.316Z,72.60
2018-01-27T07:36:46.480Z,59.33
2018-01-27T07:39:13.944Z,73.40
2018-01-27T07:41:40.152Z,61.97
2018-01-27T07:44:06.361Z,67.10
2018-01-27T07:46:32.535Z,61.80
2018-01-27T07:48:58.707Z,79.87
2018-01-27T07:51:24.881Z,60.10
2018-01-27T07:53:51.059Z,59.93
2018-01-27T07:56:18.004Z,61.47
2018-01-27T07:58:44.940Z,61.43
2018-01-27T08:01:11.105Z,55.80
2018-01-27T08:03:37.276Z,55.47
2018-01-27T08:06:03.460Z,53.07
2018-01-27T08:08:30.384Z,52.07
2018-01-27T08:10:56.599Z,49.13
2018-01-27T08:13:22.772Z,48.40
2018-01-27T08:15:49.760Z,54.33
2018-01-27T08:18:16.056Z,42.00
2018-01-27T08:20:42.257Z,51.93
2018-01-27T08:23:08.412Z,51.47
2018-01-27T08:25:34.579Z,54.13
2018-01-27T08:28:00.768Z,55.00
2018-01-27T08:30:26.952Z,49.40
2018-01-27T08:32:53.123Z,52.60
2018-01-27T08:35:19.301Z,54.03
2018-01-27T08:37:45.480Z,44.10
2018-01-27T08:40:11.650Z,52.27
2018-01-27T08:42:38.591Z,47.70
2018-01-27T08:45:04.766Z,43.03
2018-01-27T08:47:30.961Z,33.53
2018-01-27T08:49:57.906Z,49.70
2018-01-27T08:52:24.071Z,36.40
2018-01-27T08:54:50.247Z,58.70
2018-01-27T08:57:16.417Z,51.63
2018-01-27T08:59:42.581Z,57.57
2018-01-27T09:02:08.770Z,47.23
2018-01-27T09:04:34.967Z,43.70
2018-01-27T09:07:01.115Z,55.57
2018-01-27T09:09:27.293Z,60.10
2018-01-27T09:11:54.217Z,49.30
2018-01-27T09:14:20.421Z,49.47
2018-01-27T09:16:46.767Z,53.40
2018-01-27T09:19:13.216Z,59.23
2018-01-27T09:21:39.390Z,62.07
2018-01-27T09:24:05.603Z,54.43
2018-01-27T09:26:31.779Z,66.00
2018-01-27T09:28:57.955Z,63.10
2018-01-27T09:31:24.140Z,65.27
2018-01-27T09:33:50.354Z,60.97
2018-01-27T09:36:16.528Z,74.50
2018-01-27T09:38:42.709Z,68.87
2018-01-27T09:41:08.905Z,63.83
2018-01-27T09:43:35.083Z,76.80
2018-01-27T09:46:01.260Z,68.37
2018-01-27T09:48:28.231Z,72.07
2018-01-27T09:50:54.419Z,76.27
2018-01-27T09:53:20.596Z,74.00
2018-01-27T09:55:46.790Z,67.43
2018-01-27T09:58:13.705Z,68.80
2018-01-27T10:00:39.896Z,71.77
2018-01-27T10:03:06.091Z,73.27
2018-01-27T10:05:33.015Z,81.37
2018-01-27T10:07:59.202Z,63.53
2018-01-27T10:10:25.408Z,71.50
2018-01-27T10:12:51.588Z,97.33
2018-01-27T10:15:17.782Z,67.60
2018-01-27T10:17:44.876Z,67.00
2018-01-27T10:20:11.851Z,70.43
2018-01-27T10:22:38.027Z,62.23
2018-01-27T10:25:04.960Z,77.37
2018-01-27T10:27:31.899Z,72.03
2018-01-27T10:29:58.099Z,64.07
2018-01-27T10:32:24.290Z,73.23
2018-01-27T10:34:51.212Z,67.57
2018-01-27T10:37:17.408Z,66.53
2018-01-27T10:39:43.610Z,63.40
2018-01-27T10:42:09.793Z,73.67
2018-01-27T10:44:36.499Z,69.20
2018-01-27T10:47:02.696Z,72.40
2018-01-27T10:49:28.919Z,72.70
2018-01-27T10:51:55.174Z,72.17
2018-01-27T10:54:21.379Z,67.33
2018-01-27T10:56:47.560Z,75.30
2018-01-27T10:59:14.466Z,80.87
2018-01-27T11:01:40.650Z,67.67
2018-01-27T11:04:06.844Z,66.93
2018-01-27T11:06:33.792Z,75.33
2018-01-27T11:09:00.009Z,86.73
2018-01-27T11:11:26.197Z,79.43
2018-01-27T11:13:53.104Z,81.87
2018-01-27T11:16:19.303Z,83.73
2018-01-27T11:18:45.564Z,75.40
2018-01-27T11:21:11.953Z,78.97
2018-01-27T11:23:38.897Z,85.60
2018-01-27T11:26:05.824Z,70.30
2018-01-27T11:28:31.985Z,47.73
2018-01-27T11:30:58.924Z,59.73
2018-01-27T11:33:25.855Z,57.83
2018-01-27T11:35:52.087Z,45.50
2018-01-27T11:38:18.319Z,38.73
2018-01-27T11:40:45.305Z,40.87
2018-01-27T11:43:12.197Z,50.07
2018-01-27T11:45:38.418Z,52.73
2018-01-27T11:48:04.612Z,53.83
2018-01-27T11:50:31.083Z,48.60
2018-01-27T11:52:58.223Z,51.87
2018-01-27T11:55:25.144Z,49.83
2018-01-27T11:57:52.084Z,61.70
2018-01-27T12:00:19.812Z,50.60
2018-01-27T12:02:45.996Z,56.50
2018-01-27T12:05:12.163Z,57.93
2018-01-27T12:07:39.084Z,66.13
2018-01-27T12:10:05.275Z,53.63
2018-01-27T12:12:31.435Z,60.97
2018-01-27T12:14:57.616Z,59.20
2018-01-27T12:17:23.803Z,57.10
2018-01-27T12:19:50.065Z,51.43
2018-01-27T12:22:16.284Z,60.73
2018-01-27T12:24:42.488Z,53.57
2018-01-27T12:27:08.683Z,51.30
2018-01-27T12:29:34.883Z,61.73
2018-01-27T12:32:01.101Z,66.00
2018-01-27T12:34:27.296Z,67.23
2018-01-27T12:36:53.514Z,62.23
2018-01-27T12:39:19.748Z,61.97
2018-01-27T12:41:45.891Z,53.73
2018-01-27T12:44:12.813Z,59.87
2018-01-27T12:46:39.761Z,64.47
2018-01-27T12:49:06.710Z,58.50
2018-01-27T12:51:32.908Z,57.67
2018-01-27T12:53:59.076Z,65.60
2018-01-27T12:56:25.256Z,64.60
2018-01-27T12:58:51.448Z,56.43
2018-01-27T13:01:18.368Z,60.40
2018-01-27T13:03:44.751Z,47.13
2018-01-27T13:06:11.107Z,54.27
2018-01-27T13:08:38.030Z,61.03
2018-01-27T13:11:04.940Z,50.37
2018-01-27T13:13:31.161Z,66.50
2018-01-27T13:15:57.345Z,49.67
2018-01-27T13:18:24.267Z,50.10
2018-01-27T13:20:50.553Z,59.70
2018-01-27T13:23:17.008Z,52.00
2018-01-27T13:25:43.211Z,52.23
2018-01-27T13:28:09.391Z,54.43
2018-01-27T13:30:35.576Z,60.53
2018-01-27T13:33:02.500Z,64.03
2018-01-27T13:35:28.692Z,62.20
2018-01-27T13:37:54.875Z,52.73
2018-01-27T13:40:21.818Z,53.83
2018-01-27T13:42:48.033Z,60.90
2018-01-27T13:45:14.262Z,58.33
2018-01-27T13:47:40.423Z,59.17
2018-01-27T13:50:06.660Z,53.60
2018-01-27T13:52:32.833Z,61.93
2018-01-27T13:54:59.737Z,57.10
2018-01-27T13:57:26.711Z,52.97
2018-01-27T13:59:53.647Z,51.03
2018-01-27T14:02:19.823Z,50.27
2018-01-27T14:04:46.010Z,55.23
2018-01-27T14:07:12.208Z,52.13
2018-01-27T14:09:38.416Z,47.37
2018-01-27T14:12:05.360Z,50.87
2018-01-27T14:14:32.263Z,56.50
2018-01-27T14:16:58.472Z,48.40
2018-01-27T14:19:24.648Z,53.93
2018-01-27T14:21:51.013Z,49.80
2018-01-27T14:24:17.448Z,54.53
2018-01-27T14:26:43.708Z,50.47
2018-01-27T14:29:09.910Z,61.40
2018-01-27T14:31:36.847Z,54.93
2018-01-27T14:34:03.032Z,59.47
2018-01-27T14:36:37.414Z,57.27
2018-01-27T14:39:04.348Z,53.33
2018-01-27T14:41:30.537Z,54.27
2018-01-27T14:43:57.528Z,56.27
2018-01-27T14:46:23.716Z,59.57
2018-01-27T14:48:49.884Z,53.83
2018-01-27T14:51:16.072Z,52.70
2018-01-27T14:53:43.047Z,55.43
2018-01-27T14:56:09.213Z,50.67
2018-01-27T14:58:35.403Z,50.47
2018-01-27T15:01:02.354Z,47.33
2018-01-27T15:03:28.528Z,40.83
2018-01-27T15:05:56.229Z,44.37
2018-01-27T15:08:23.174Z,40.67
2018-01-27T15:10:49.461Z,48.63
2018-01-27T15:13:15.743Z,42.37
2018-01-27T15:15:41.943Z,46.17
2018-01-27T15:18:08.152Z,43.67
2018-01-27T15:20:34.336Z,39.60
2018-01-27T15:23:00.644Z,38.03
2018-01-27T15:25:27.624Z,41.03
2018-01-27T15:27:53.789Z,42.87
2018-01-27T15:30:20.030Z,42.47
2018-01-27T15:32:46.235Z,42.37
2018-01-27T15:35:12.416Z,41.07
2018-01-27T15:37:38.626Z,44.10
2018-01-27T15:40:04.816Z,41.43
2018-01-27T15:42:30.999Z,43.00
2018-01-27T15:44:57.240Z,46.00
2018-01-27T15:47:23.437Z,63.20
2018-01-27T15:49:50.356Z,59.20
2018-01-27T15:52:16.553Z,47.20
2018-01-27T15:54:42.724Z,49.53
2018-01-27T15:57:08.888Z,48.00
2018-01-27T15:59:35.839Z,57.90
2018-01-27T16:02:02.073Z,65.73
2018-01-27T16:04:28.293Z,60.37
2018-01-27T16:06:54.483Z,57.17
2018-01-27T16:09:20.663Z,51.40
2018-01-27T16:11:47.612Z,59.97
2018-01-27T16:14:13.814Z,50.77
2018-01-27T16:16:39.975Z,45.73
2018-01-27T16:19:06.144Z,44.00
2018-01-27T16:21:33.088Z,41.63
2018-01-27T16:23:59.375Z,41.07
2018-01-27T16:26:25.751Z,45.70
2018-01-27T16:28:51.945Z,51.07
2018-01-27T16:31:18.128Z,38.67
2018-01-27T16:33:45.092Z,37.13
2018-01-27T16:36:12.038Z,40.67
2018-01-27T16:38:38.933Z,51.90
2018-01-27T16:41:05.105Z,41.30
2018-01-27T16:43:32.776Z,45.63
2018-01-27T16:45:59.720Z,43.10
2018-01-27T16:48:26.653Z,44.80
2018-01-27T16:50:52.820Z,41.90
2018-01-27T16:53:19.749Z,42.87
2018-01-27T16:55:46.680Z,42.47
2018-01-27T16:58:12.890Z,36.90
2018-01-27T17:00:39.085Z,47.40
2018-01-27T17:03:05.301Z,34.53
2018-01-27T17:05:32.243Z,42.53
2018-01-27T17:07:58.427Z,39.37
2018-01-27T17:10:25.340Z,37.80
2018-01-27T17:12:52.291Z,40.60
2018-01-27T17:15:19.204Z,42.67
2018-01-27T17:17:45.375Z,38.47
2018-01-27T17:20:11.561Z,35.73
2018-01-27T17:22:37.724Z,32.30
2018-01-27T17:25:03.960Z,34.00
2018-01-27T17:27:30.450Z,34.87
2018-01-27T17:29:56.620Z,37.37
2018-01-27T17:32:22.803Z,34.10
2018-01-27T17:34:49.021Z,37.07
2018-01-27T17:37:15.931Z,31.43
2018-01-27T17:39:42.115Z,36.20
2018-01-27T17:42:09.062Z,40.17
2018-01-27T17:44:35.274Z,39.80
2018-01-27T17:47:01.476Z,38.53
2018-01-27T17:49:27.699Z,36.30
2018-01-27T17:51:53.904Z,36.50
2018-01-27T17:54:20.107Z,36.50
2018-01-27T17:56:46.346Z,47.63
2018-01-27T17:59:12.568Z,44.40
2018-01-27T18:01:38.769Z,43.63
2018-01-27T18:04:05.046Z,43.00
2018-01-27T18:06:31.275Z,47.70
2018-01-27T18:08:57.488Z,45.37
2018-01-27T18:11:23.676Z,46.30
2018-01-27T18:13:50.732Z,46.30
2018-01-27T18:16:17.780Z,51.33
2018-01-27T18:18:44.780Z,51.77
2018-01-27T18:21:10.975Z,50.03
2018-01-27T18:23:37.172Z,51.73
2018-01-27T18:26:03.455Z,52.60
2018-01-27T18:28:29.896Z,63.17
2018-01-27T18:30:56.852Z,53.17
2018-01-27T18:33:23.896Z,59.50
2018-01-27T18:35:50.097Z,65.27
2018-01-27T18:38:17.021Z,58.30
2018-01-27T18:40:43.200Z,57.23
2018-01-27T18:43:10.133Z,64.87
2018-01-27T18:45:36.288Z,60.70
2018-01-27T18:48:02.503Z,68.70
2018-01-27T18:50:28.692Z,58.57
2018-01-27T18:52:54.908Z,62.67
2018-01-27T18:55:21.116Z,70.27
2018-01-27T18:57:48.030Z,85.53
2018-01-27T19:00:14.968Z,64.83
2018-01-27T19:02:41.180Z,61.17
2018-01-27T19:05:07.356Z,51.17
2018-01-27T19:07:35.024Z,58.07
2018-01-27T19:10:01.212Z,53.43
2018-01-27T19:12:27.392Z,56.73
2018-01-27T19:14:53.620Z,60.07
2018-01-27T19:17:19.862Z,61.10
2018-01-27T19:19:46.006Z,64.20
2018-01-27T19:22:12.948Z,54.03
2018-01-27T19:24:39.924Z,55.53
2018-01-27T19:27:06.176Z,51.57
2018-01-27T19:29:32.488Z,57.53
2018-01-27T19:31:59.430Z,58.00
2018-01-27T19:34:26.363Z,59.13
2018-01-27T19:36:52.555Z,65.80
2018-01-27T19:39:18.811Z,59.77
2018-01-27T19:41:45.035Z,55.40
2018-01-27T19:44:11.228Z,51.77
2018-01-27T19:46:38.158Z,54.47
2018-01-27T19:49:04.340Z,47.70
2018-01-27T19:51:30.543Z,49.90
2018-01-27T19:53:57.640Z,53.90
2018-01-27T19:56:23.836Z,50.07
2018-01-27T19:58:50.768Z,49.90
2018-01-27T20:01:16.978Z,55.30
2018-01-27T20:03:43.212Z,59.50
2018-01-27T20:06:09.438Z,47.70
2018-01-27T20:08:35.679Z,53.13
2018-01-27T20:11:01.916Z,60.40
2018-01-27T20:13:29.602Z,52.30
2018-01-27T20:15:58.618Z,51.37
2018-01-27T20:18:27.637Z,48.60
2018-01-27T20:20:55.997Z,47.00
2018-01-27T20:23:24.963Z,46.13
2018-01-27T20:25:53.920Z,47.93
2018-01-27T20:28:22.172Z,50.97
2018-01-27T20:30:50.632Z,48.83
2018-01-27T20:33:18.297Z,50.30
2018-01-27T20:35:46.062Z,53.50
2018-01-27T20:38:14.581Z,49.93
2018-01-27T20:40:45.419Z,43.20
2018-01-27T20:43:13.031Z,49.93
2018-01-27T20:45:40.373Z,43.23
2018-01-27T20:48:07.275Z,37.73
2018-01-27T20:50:33.456Z,39.27
2018-01-27T20:52:59.766Z,43.07
2018-01-27T20:55:26.692Z,44.77
2018-01-27T20:57:53.621Z,43.03
2018-01-27T21:00:19.812Z,36.73
2018-01-27T21:02:46.737Z,39.23
2018-01-27T21:05:12.914Z,36.50
2018-01-27T21:07:39.832Z,44.33
2018-01-27T21:10:06.028Z,43.83
2018-01-27T21:12:32.208Z,44.43
2018-01-27T21:14:59.162Z,42.30
2018-01-27T21:17:26.072Z,32.80
2018-01-27T21:19:52.249Z,37.43
2018-01-27T21:22:18.468Z,35.50
2018-01-27T21:24:45.394Z,30.90
2018-01-27T21:27:11.608Z,38.83
2018-01-27T21:29:38.092Z,31.80
2018-01-27T21:32:04.596Z,30.57
2018-01-27T21:34:30.799Z,31.67
2018-01-27T21:36:57.001Z,36.80
2018-01-27T21:39:23.192Z,29.57
2018-01-27T21:41:49.389Z,28.40
2018-01-27T21:44:15.632Z,26.53
2018-01-27T21:46:41.941Z,31.53
2018-01-27T21:49:08.220Z,28.63
2018-01-27T21:51:34.553Z,27.10
2018-01-27T21:54:00.906Z,27.50
2018-01-27T21:56:27.189Z,26.47
2018-01-27T21:58:54.124Z,32.67
2018-01-27T22:01:21.317Z,29.20
2018-01-27T22:03:48.324Z,28.17
2018-01-27T22:06:14.588Z,35.53
2018-01-27T22:08:40.791Z,27.60
2018-01-27T22:11:07.000Z,24.20
2018-01-27T22:13:33.193Z,24.67
2018-01-27T22:15:59.398Z,33.03
2018-01-27T22:18:25.627Z,22.00
2018-01-27T22:20:51.863Z,26.87
2018-01-27T22:23:18.147Z,30.30
2018-01-27T22:25:44.356Z,28.60
2018-01-27T22:28:10.555Z,25.73
2018-01-27T22:30:36.788Z,27.73
2018-01-27T22:33:03.176Z,25.90
2018-01-27T22:35:30.116Z,23.90
2018-01-27T22:37:56.323Z,23.93
2018-01-27T22:40:22.488Z,26.33
2018-01-27T22:42:49.432Z,27.13
2018-01-27T22:45:16.372Z,28.30
2018-01-27T22:47:42.551Z,23.40
2018-01-27T22:50:08.762Z,29.90
2018-01-27T22:52:35.663Z,25.80
2018-01-27T22:55:01.849Z,32.53
2018-01-27T22:57:28.769Z,27.80
2018-01-27T22:59:56.421Z,29.90
2018-01-27T23:02:22.656Z,24.43
2018-01-27T23:04:48.801Z,27.00
2018-01-27T23:07:14.987Z,25.23
2018-01-27T23:09:41.159Z,22.50
2018-01-27T23:12:07.376Z,22.67
2018-01-27T23:14:33.535Z,22.27
2018-01-27T23:16:59.727Z,20.03
2018-01-27T23:19:25.920Z,18.50
2018-01-27T23:21:52.849Z,18.53
2018-01-27T23:24:19.044Z,23.40
2018-01-27T23:26:45.296Z,17.00
2018-01-27T23:29:11.493Z,18.00
2018-01-27T23:31:37.753Z,13.23
2018-01-27T23:34:03.999Z,20.57
2018-01-27T23:36:30.337Z,18.53
2018-01-27T23:38:56.558Z,16.93
2018-01-27T23:41:22.762Z,16.00
2018-01-27T23:43:49.684Z,23.70
2018-01-27T23:46:15.882Z,15.60
2018-01-27T23:48:42.096Z,18.07
2018-01-27T23:51:08.275Z,17.33
2018-01-27T23:53:35.204Z,15.13
2018-01-27T23:56:01.433Z,15.80
2018-01-27T23:58:27.610Z,11.83
